Time;durP1;ratioP1;P1;durP2;ratioP2;P2;SDS_P1;SDS_P2;PMS_P1;PMS_P2;Temp;Humidity;BMP_temperature;BMP_pressure;BME280_temperature;BME280_humidity;BME280_pressure;Samples;Min_cycle;Max_cycle;Signal;HPM_P1;HPM_P2
2022/09/07 00:00:32;;;;;;;4.93;2.53;;;;;;;;;;5031237;28;20038;-84
2022/09/07 00:02:57;;;;;;;3.25;2.50;;;;;;;;;;5026323;28;20035;-84
2022/09/07 00:05:22;;;;;;;4.47;2.53;;;;;;;;;;5026797;28;20025;-84
2022/09/07 00:07:48;;;;;;;3.95;2.78;;;;;;;;;;5022148;28;20175;-84
2022/09/07 00:10:13;;;;;;;5.22;2.80;;;;;;;;;;5025116;28;20116;-83
2022/09/07 00:12:39;;;;;;;4.47;2.90;;;;;;;;;;5028358;28;20061;-84
2022/09/07 00:15:09;;;;;;;6.47;2.80;;;;;;;;;;5030815;28;20069;-84
2022/09/07 00:17:35;;;;;;;4.22;2.83;;;;;;;;;;5031963;28;20064;-84
2022/09/07 00:20:01;;;;;;;4.47;3.05;;;;;;;;;;5030547;28;20033;-84
2022/09/07 00:22:26;;;;;;;5.43;3.08;;;;;;;;;;5031044;28;20410;-84
2022/09/07 00:24:51;;;;;;;4.97;3.00;;;;;;;;;;5029443;28;20033;-84
2022/09/07 00:27:17;;;;;;;4.78;3.30;;;;;;;;;;5019548;28;20037;-84
2022/09/07 00:29:42;;;;;;;4.70;2.90;;;;;;;;;;5029874;28;20087;-84
2022/09/07 00:32:07;;;;;;;4.85;3.30;;;;;;;;;;5030428;28;20036;-84
2022/09/07 00:34:33;;;;;;;8.35;3.45;;;;;;;;;;5021905;28;20042;-84
2022/09/07 00:36:59;;;;;;;5.35;3.30;;;;;;;;;;5018598;28;20100;-84
2022/09/07 00:39:24;;;;;;;7.82;3.70;;;;;;;;;;5019831;28;20056;-84
2022/09/07 00:41:49;;;;;;;6.43;3.78;;;;;;;;;;5029563;28;20033;-84
2022/09/07 00:44:43;;;;;;;4.93;3.22;;;;;;;;;;5020094;28;20041;-83
2022/09/07 00:47:17;;;;;;;6.25;3.67;;;;;;;;;;5024366;28;20048;-84
2022/09/07 00:49:46;;;;;;;7.13;3.85;;;;;;;;;;5011813;28;20056;-84
2022/09/07 00:52:15;;;;;;;6.82;3.20;;;;;;;;;;5030544;28;20052;-84
2022/09/07 00:54:45;;;;;;;5.97;3.10;;;;;;;;;;5030459;28;20061;-84
2022/09/07 00:57:11;;;;;;;3.50;2.72;;;;;;;;;;5030609;28;20041;-85
2022/09/07 00:59:41;;;;;;;6.18;3.45;;;;;;;;;;5011323;28;20112;-84
2022/09/07 01:02:07;;;;;;;6.75;3.78;;;;;;;;;;5015405;28;20479;-84
2022/09/07 01:04:34;;;;;;;8.57;3.80;;;;;;;;;;5028743;28;20044;-85
2022/09/07 01:07:01;;;;;;;5.00;3.75;;;;;;;;;;5021978;28;20068;-84
2022/09/07 01:09:27;;;;;;;6.35;3.33;;;;;;;;;;5042471;28;20061;-84
2022/09/07 01:11:53;;;;;;;8.10;4.53;;;;;;;;;;5026863;28;20052;-84
2022/09/07 01:14:21;;;;;;;7.38;3.95;;;;;;;;;;5027054;28;20474;-84
2022/09/07 01:17:20;;;;;;;9.07;3.90;;;;;;;;;;5024252;28;20129;-85
2022/09/07 01:20:03;;;;;;;6.28;3.40;;;;;;;;;;5025429;28;20045;-85
2022/09/07 01:22:40;;;;;;;6.60;4.00;;;;;;;;;;5010590;28;20593;-84
2022/09/07 01:25:26;;;;;;;6.78;3.85;;;;;;;;;;5025127;28;20037;-84
2022/09/07 01:27:59;;;;;;;7.72;3.67;;;;;;;;;;5015722;28;20033;-85
2022/09/07 01:30:25;;;;;;;5.75;3.95;;;;;;;;;;5026010;28;20471;-84
2022/09/07 01:33:12;;;;;;;5.93;3.72;;;;;;;;;;5028417;28;20063;-85
2022/09/07 01:35:53;;;;;;;6.82;3.80;;;;;;;;;;5018371;28;20120;-85
2022/09/07 01:38:37;;;;;;;6.40;3.33;;;;;;;;;;5011569;28;20515;-84
2022/09/07 01:41:16;;;;;;;7.63;3.83;;;;;;;;;;5023135;28;20042;-85
2022/09/07 01:43:57;;;;;;;4.88;3.38;;;;;;;;;;5028805;28;20408;-84
2022/09/07 01:46:32;;;;;;;6.60;3.85;;;;;;;;;;5022946;28;20057;-84
2022/09/07 01:49:07;;;;;;;7.65;3.70;;;;;;;;;;5028085;28;20038;-84
2022/09/07 01:51:34;;;;;;;7.20;3.63;;;;;;;;;;5028142;28;20037;-84
2022/09/07 01:54:24;;;;;;;8.88;4.30;;;;;;;;;;5025867;28;20128;-84
2022/09/07 01:56:56;;;;;;;6.88;3.67;;;;;;;;;;5017810;28;20030;-85
2022/09/07 01:59:29;;;;;;;6.45;3.78;;;;;;;;;;5021991;28;20033;-84
2022/09/07 02:02:28;;;;;;;5.85;3.97;;;;;;;;;;5027259;28;20425;-84
2022/09/07 02:05:40;;;;;;;7.07;4.00;;;;;;;;;;5026715;28;20728;-84
2022/09/07 02:08:14;;;;;;;8.25;3.78;;;;;;;;;;5025144;28;20124;-84
2022/09/07 02:10:55;;;;;;;8.88;3.80;;;;;;;;;;5028084;28;20451;-84
2022/09/07 02:13:33;;;;;;;5.80;3.85;;;;;;;;;;5029046;28;20095;-84
2022/09/07 02:16:06;;;;;;;7.40;3.95;;;;;;;;;;5027467;28;20029;-85
2022/09/07 02:18:40;;;;;;;8.80;4.20;;;;;;;;;;5023359;28;20034;-84
2022/09/07 02:21:09;;;;;;;5.25;3.28;;;;;;;;;;5024635;28;20029;-84
2022/09/07 02:23:49;;;;;;;7.20;3.75;;;;;;;;;;5027331;28;20098;-84
2022/09/07 02:26:19;;;;;;;10.32;3.85;;;;;;;;;;5027991;28;20065;-84
2022/09/07 02:28:44;;;;;;;7.55;4.03;;;;;;;;;;5028390;28;20120;-83
2022/09/07 02:31:10;;;;;;;6.07;3.50;;;;;;;;;;5028398;28;20175;-85
2022/09/07 02:33:35;;;;;;;6.30;3.75;;;;;;;;;;5025466;28;20119;-83
2022/09/07 02:36:03;;;;;;;8.10;4.72;;;;;;;;;;5020746;28;20124;-84
2022/09/07 02:38:28;;;;;;;7.22;3.90;;;;;;;;;;5028664;28;20957;-84
2022/09/07 02:40:57;;;;;;;8.98;3.83;;;;;;;;;;5027036;28;20128;-84
2022/09/07 02:43:23;;;;;;;7.40;3.90;;;;;;;;;;5025385;28;20124;-84
2022/09/07 02:46:33;;;;;;;7.50;4.25;;;;;;;;;;5026930;28;20025;-84
2022/09/07 02:49:08;;;;;;;8.50;4.30;;;;;;;;;;4999964;28;20216;-84
2022/09/07 02:51:51;;;;;;;6.63;4.05;;;;;;;;;;5013058;28;20247;-83
2022/09/07 02:54:29;;;;;;;;;;;;;;;;;;5015581;28;20049;-84
2022/09/07 02:57:06;;;;;;;6.32;4.00;;;;;;;;;;5023011;28;20299;-84
2022/09/07 02:59:59;;;;;;;7.53;4.45;;;;;;;;;;5022214;28;20495;-84
2022/09/07 03:02:47;;;;;;;7.07;3.40;;;;;;;;;;5027372;28;20495;-84
2022/09/07 03:05:19;;;;;;;5.70;3.60;;;;;;;;;;5024777;28;20080;-84
2022/09/07 03:08:00;;;;;;;7.30;3.60;;;;;;;;;;5014615;28;20526;-84
2022/09/07 03:10:27;;;;;;;6.28;4.05;;;;;;;;;;5022034;28;20076;-84
2022/09/07 03:12:52;;;;;;;5.18;3.42;;;;;;;;;;5026958;28;20029;-84
2022/09/07 03:15:23;;;;;;;6.97;3.70;;;;;;;;;;5025271;28;20413;-84
2022/09/07 03:17:48;;;;;;;8.68;3.97;;;;;;;;;;5026364;28;20032;-83
2022/09/07 03:20:17;;;;;;;7.32;3.40;;;;;;;;;;5018213;28;20459;-84
2022/09/07 03:22:45;;;;;;;6.32;3.33;;;;;;;;;;5024516;28;20053;-84
2022/09/07 03:25:11;;;;;;;8.05;3.85;;;;;;;;;;5025927;28;20045;-83
2022/09/07 03:27:37;;;;;;;9.48;3.75;;;;;;;;;;5027942;28;20029;-84
2022/09/07 03:30:04;;;;;;;6.07;3.97;;;;;;;;;;5026795;28;20040;-84
2022/09/07 03:32:34;;;;;;;9.52;3.38;;;;;;;;;;5028817;28;20116;-84
2022/09/07 03:35:00;;;;;;;7.43;3.35;;;;;;;;;;5021381;28;20064;-83
2022/09/07 03:37:27;;;;;;;6.15;3.70;;;;;;;;;;5021099;28;20041;-84
2022/09/07 03:39:52;;;;;;;7.97;3.38;;;;;;;;;;5024505;28;20059;-84
2022/09/07 03:42:17;;;;;;;9.27;4.25;;;;;;;;;;5024920;28;20394;-84
2022/09/07 03:44:43;;;;;;;6.93;3.75;;;;;;;;;;5026873;28;20071;-84
2022/09/07 03:47:08;;;;;;;6.30;3.38;;;;;;;;;;5020927;28;20120;-83
2022/09/07 03:49:34;;;;;;;7.00;3.78;;;;;;;;;;5030502;28;20041;-83
2022/09/07 03:51:59;;;;;;;9.68;4.07;;;;;;;;;;5030355;28;20033;-84
2022/09/07 03:54:24;;;;;;;9.05;4.47;;;;;;;;;;5027713;28;20515;-83
2022/09/07 03:56:50;;;;;;;7.32;4.00;;;;;;;;;;5022532;28;20682;-84
2022/09/07 03:59:15;;;;;;;7.45;3.47;;;;;;;;;;5023262;28;20022;-84
2022/09/07 04:01:41;;;;;;;8.75;3.70;;;;;;;;;;5029721;28;20783;-84
2022/09/07 04:04:06;;;;;;;8.40;3.70;;;;;;;;;;5029559;28;20025;-84
2022/09/07 04:06:31;;;;;;;6.38;3.28;;;;;;;;;;5030343;28;20483;-84
2022/09/07 04:09:02;;;;;;;7.43;3.70;;;;;;;;;;5029734;28;20499;-83
2022/09/07 04:11:27;;;;;;;7.07;3.40;;;;;;;;;;5031522;28;20025;-83
2022/09/07 04:13:53;;;;;;;4.47;3.10;;;;;;;;;;5029239;28;20059;-84
2022/09/07 04:16:22;;;;;;;3.67;2.75;;;;;;;;;;5029836;28;20049;-83
2022/09/07 04:18:49;;;;;;;8.35;3.78;;;;;;;;;;5028356;28;20118;-84
2022/09/07 04:21:15;;;;;;;6.50;3.83;;;;;;;;;;5022952;28;20183;-84
2022/09/07 04:23:41;;;;;;;7.05;3.60;;;;;;;;;;5028064;28;20037;-83
2022/09/07 04:26:13;;;;;;;5.88;3.75;;;;;;;;;;5014784;28;20026;-83
2022/09/07 04:28:39;;;;;;;5.20;3.03;;;;;;;;;;5014839;28;20042;-83
2022/09/07 04:31:04;;;;;;;6.10;3.70;;;;;;;;;;5022999;28;20042;-84
2022/09/07 04:33:31;;;;;;;6.50;3.90;;;;;;;;;;5019714;28;20044;-83
2022/09/07 04:35:58;;;;;;;4.82;3.22;;;;;;;;;;5012163;28;20057;-84
2022/09/07 04:38:24;;;;;;;6.18;3.63;;;;;;;;;;5026918;28;20754;-84
2022/09/07 04:40:49;;;;;;;9.63;4.18;;;;;;;;;;5030989;28;20037;-84
2022/09/07 04:43:14;;;;;;;7.05;4.10;;;;;;;;;;5029546;28;20518;-84
2022/09/07 04:45:40;;;;;;;7.72;4.45;;;;;;;;;;5011104;28;20698;-84
2022/09/07 04:48:05;;;;;;;8.20;4.70;;;;;;;;;;5026206;28;20041;-84
2022/09/07 04:50:31;;;;;;;6.80;4.07;;;;;;;;;;5028391;28;20036;-83
2022/09/07 04:52:57;;;;;;;7.60;4.20;;;;;;;;;;5029329;28;20049;-84
2022/09/07 04:55:22;;;;;;;8.57;4.05;;;;;;;;;;5021530;28;20050;-85
2022/09/07 04:57:48;;;;;;;7.20;4.97;;;;;;;;;;5022208;28;20029;-85
2022/09/07 05:00:14;;;;;;;9.43;5.00;;;;;;;;;;5032762;28;20044;-84
2022/09/07 05:02:42;;;;;;;8.70;4.80;;;;;;;;;;4999961;28;20646;-85
2022/09/07 05:05:08;;;;;;;10.90;4.90;;;;;;;;;;5018364;28;20065;-85
2022/09/07 05:07:33;;;;;;;8.82;4.82;;;;;;;;;;5001887;28;20081;-84
2022/09/07 05:09:59;;;;;;;9.38;4.43;;;;;;;;;;5003471;28;20435;-84
2022/09/07 05:12:24;;;;;;;8.57;4.45;;;;;;;;;;5007574;28;20415;-84
2022/09/07 05:14:50;;;;;;;7.60;4.20;;;;;;;;;;5005747;28;20047;-84
2022/09/07 05:17:15;;;;;;;8.88;4.38;;;;;;;;;;5005811;28;20571;-84
2022/09/07 05:19:40;;;;;;;6.60;4.20;;;;;;;;;;5006977;28;20045;-84
2022/09/07 05:22:06;;;;;;;8.07;4.10;;;;;;;;;;5008944;28;21101;-84
2022/09/07 05:24:35;;;;;;;10.48;4.75;;;;;;;;;;5008306;28;20069;-84
2022/09/07 05:27:01;;;;;;;9.88;4.88;;;;;;;;;;5007580;28;20045;-84
2022/09/07 05:29:27;;;;;;;10.70;5.40;;;;;;;;;;5002793;28;20041;-84
2022/09/07 05:31:53;;;;;;;11.13;5.13;;;;;;;;;;5000708;28;20057;-84
2022/09/07 05:34:18;;;;;;;12.13;5.60;;;;;;;;;;5007423;28;20067;-84
2022/09/07 05:36:44;;;;;;;8.88;4.72;;;;;;;;;;5004445;28;20053;-84
2022/09/07 05:39:09;;;;;;;9.63;4.85;;;;;;;;;;5017719;28;20045;-83
2022/09/07 05:41:35;;;;;;;12.68;5.00;;;;;;;;;;5001613;28;20037;-83
2022/09/07 05:44:01;;;;;;;10.80;4.50;;;;;;;;;;5001462;28;20033;-84
2022/09/07 05:46:26;;;;;;;9.65;4.55;;;;;;;;;;5003055;28;20120;-83
2022/09/07 05:48:52;;;;;;;9.30;4.80;;;;;;;;;;5004308;28;20072;-84
2022/09/07 05:51:18;;;;;;;8.68;4.40;;;;;;;;;;5007320;28;20065;-83
2022/09/07 05:53:46;;;;;;;7.65;4.45;;;;;;;;;;5001620;28;20037;-84
2022/09/07 05:56:11;;;;;;;7.88;4.50;;;;;;;;;;5002899;28;20028;-83
2022/09/07 05:58:37;;;;;;;9.48;5.30;;;;;;;;;;5002408;28;20041;-83
2022/09/07 06:01:08;;;;;;;12.75;6.03;;;;;;;;;;5001434;28;20050;-83
2022/09/07 06:03:35;;;;;;;12.60;5.93;;;;;;;;;;5002293;28;20038;-84
2022/09/07 06:06:03;;;;;;;13.85;6.25;;;;;;;;;;5000809;28;20046;-84
2022/09/07 06:08:29;;;;;;;18.33;6.60;;;;;;;;;;5007170;28;20065;-84
2022/09/07 06:10:55;;;;;;;14.68;6.25;;;;;;;;;;5002922;28;20042;-83
2022/09/07 06:13:21;;;;;;;12.02;6.60;;;;;;;;;;5010240;28;20518;-84
2022/09/07 06:15:46;;;;;;;14.68;7.32;;;;;;;;;;5003716;28;20582;-84
2022/09/07 06:18:12;;;;;;;13.57;6.90;;;;;;;;;;4999781;28;20045;-84
2022/09/07 06:20:37;;;;;;;19.80;6.82;;;;;;;;;;5003707;28;21412;-84
2022/09/07 06:23:02;;;;;;;15.50;7.15;;;;;;;;;;5005260;28;20045;-83
2022/09/07 06:25:28;;;;;;;15.93;6.80;;;;;;;;;;5004385;28;20078;-83
2022/09/07 06:27:53;;;;;;;13.77;7.45;;;;;;;;;;5002355;28;20030;-84
2022/09/07 06:30:20;;;;;;;16.90;7.40;;;;;;;;;;5004798;28;20155;-83
2022/09/07 06:32:45;;;;;;;13.77;6.53;;;;;;;;;;4999064;28;20120;-83
2022/09/07 06:35:11;;;;;;;17.73;7.00;;;;;;;;;;5014365;28;20070;-84
2022/09/07 06:37:37;;;;;;;14.02;6.13;;;;;;;;;;4997677;28;20396;-84
2022/09/07 06:40:03;;;;;;;14.98;6.65;;;;;;;;;;5008483;28;20049;-84
2022/09/07 06:42:28;;;;;;;16.83;6.45;;;;;;;;;;5014286;28;20041;-85
2022/09/07 06:44:54;;;;;;;11.63;5.65;;;;;;;;;;5012199;28;20129;-84
2022/09/07 06:47:19;;;;;;;13.00;5.90;;;;;;;;;;5027685;28;20065;-83
2022/09/07 06:49:45;;;;;;;12.80;5.38;;;;;;;;;;5027052;28;20076;-83
2022/09/07 06:52:10;;;;;;;12.10;5.10;;;;;;;;;;5012993;28;20046;-84
2022/09/07 06:54:35;;;;;;;9.43;5.05;;;;;;;;;;5018353;28;20044;-83
2022/09/07 06:57:07;;;;;;;13.98;5.38;;;;;;;;;;5019249;28;20109;-83
2022/09/07 06:59:33;;;;;;;12.23;5.90;;;;;;;;;;5016147;28;20036;-84
2022/09/07 07:01:58;;;;;;;11.23;5.45;;;;;;;;;;5023805;28;20037;-85
2022/09/07 07:04:23;;;;;;;9.80;5.22;;;;;;;;;;5019296;28;20096;-85
2022/09/07 07:06:49;;;;;;;12.35;5.22;;;;;;;;;;5022648;28;20038;-85
2022/09/07 07:09:14;;;;;;;9.07;4.63;;;;;;;;;;5010417;28;20054;-85
2022/09/07 07:11:42;;;;;;;12.23;5.07;;;;;;;;;;5016660;28;20025;-85
2022/09/07 07:14:13;;;;;;;6.68;4.07;;;;;;;;;;5022897;28;20034;-85
2022/09/07 07:16:38;;;;;;;8.07;4.38;;;;;;;;;;5016986;28;20097;-84
2022/09/07 07:19:03;;;;;;;8.57;4.53;;;;;;;;;;5017461;28;20103;-84
2022/09/07 07:21:29;;;;;;;8.73;4.70;;;;;;;;;;5025076;28;20053;-84
2022/09/07 07:23:54;;;;;;;10.55;4.65;;;;;;;;;;5022845;28;20672;-84
2022/09/07 07:26:22;;;;;;;9.02;4.53;;;;;;;;;;5025095;28;20075;-85
2022/09/07 07:28:50;;;;;;;8.52;4.40;;;;;;;;;;5024490;28;21288;-84
2022/09/07 07:31:17;;;;;;;5.90;3.83;;;;;;;;;;5025501;28;20042;-84
2022/09/07 07:33:45;;;;;;;6.03;4.20;;;;;;;;;;5016787;28;20045;-86
2022/09/07 07:36:19;;;;;;;8.93;4.63;;;;;;;;;;5034500;28;20049;-86
2022/09/07 07:38:49;;;;;;;9.55;4.90;;;;;;;;;;5015573;28;20033;-86
2022/09/07 07:41:17;;;;;;;9.00;4.15;;;;;;;;;;5025278;28;20124;-86
2022/09/07 07:43:43;;;;;;;8.55;4.47;;;;;;;;;;5024968;28;20411;-87
2022/09/07 07:46:12;;;;;;;6.53;4.00;;;;;;;;;;5023518;28;20079;-87
2022/09/07 07:48:38;;;;;;;7.00;3.72;;;;;;;;;;5024480;28;20057;-86
2022/09/07 07:51:06;;;;;;;9.20;3.67;;;;;;;;;;5004809;28;20200;-88
2022/09/07 07:53:34;;;;;;;7.10;3.75;;;;;;;;;;5039476;28;20503;-84
2022/09/07 07:56:01;;;;;;;5.85;3.13;;;;;;;;;;5015930;28;20034;-88
2022/09/07 07:58:36;;;;;;;5.10;2.63;;;;;;;;;;5023204;28;20056;-89
2022/09/07 08:01:09;;;;;;;4.88;2.33;;;;;;;;;;5009712;28;20051;-88
2022/09/07 08:06:41;;;;;;;3.35;2.00;;;;;;;;;;5303204;22;20049;-88
2022/09/07 08:09:16;;;;;;;4.68;2.13;;;;;;;;;;4957057;28;20041;-90
2022/09/07 08:11:42;;;;;;;4.47;1.90;;;;;;;;;;5005907;28;20036;-90
2022/09/07 08:14:08;;;;;;;7.40;1.77;;;;;;;;;;5010049;28;20029;-88
2022/09/07 08:16:34;;;;;;;4.60;1.83;;;;;;;;;;4993589;28;20045;-93
2022/09/07 08:19:08;;;;;;;4.07;2.10;;;;;;;;;;5008218;28;20092;-89
2022/09/07 08:21:33;;;;;;;4.07;1.67;;;;;;;;;;5011910;28;20038;-88
2022/09/07 08:23:58;;;;;;;3.42;1.98;;;;;;;;;;4996704;28;20058;-86
2022/09/07 08:26:25;;;;;;;2.95;2.05;;;;;;;;;;5026199;28;20028;-87
2022/09/07 08:28:57;;;;;;;5.07;2.15;;;;;;;;;;5034403;23;20053;-88
2022/09/07 08:31:43;;;;;;;4.78;2.03;;;;;;;;;;5009508;28;20045;-89
2022/09/07 08:34:09;;;;;;;8.43;2.80;;;;;;;;;;5021990;28;20047;-91
2022/09/07 08:36:34;;;;;;;9.85;2.03;;;;;;;;;;5018462;28;20033;-90
2022/09/07 08:39:00;;;;;;;6.30;1.90;;;;;;;;;;5028603;28;20048;-88
2022/09/07 08:41:44;;;;;;;5.20;1.90;;;;;;;;;;5026865;28;20021;-90
2022/09/07 08:44:55;;;;;;;6.05;1.77;;;;;;;;;;5023515;28;20136;-89
2022/09/07 08:47:24;;;;;;;5.05;2.10;;;;;;;;;;5018152;28;20045;-91
2022/09/07 08:50:01;;;;;;;3.63;1.83;;;;;;;;;;5023745;28;20033;-88
2022/09/07 08:52:47;;;;;;;6.22;1.90;;;;;;;;;;5020914;28;20041;-87
2022/09/07 08:55:19;;;;;;;9.82;1.88;;;;;;;;;;5026836;28;20054;-90
2022/09/07 08:57:52;;;;;;;4.50;2.22;;;;;;;;;;5022268;28;20037;-87
2022/09/07 09:00:21;;;;;;;7.63;1.52;;;;;;;;;;5021739;28;20036;-87
2022/09/07 09:02:47;;;;;;;9.50;1.48;;;;;;;;;;5028578;28;20060;-90
2022/09/07 09:05:52;;;;;;;5.88;2.00;;;;;;;;;;5021546;28;20104;-85
2022/09/07 09:08:48;;;;;;;4.82;1.80;;;;;;;;;;4927095;29;20051;-87
2022/09/07 09:11:35;;;;;;;5.78;1.50;;;;;;;;;;5018886;28;20045;-89
2022/09/07 09:38:09;;;;;;;5.18;1.60;;;;;;;;;;4987801;28;20577;-86
2022/09/07 09:44:06;;;;;;;5.03;1.60;;;;;;;;;;4986844;28;20100;-87
2022/09/07 09:46:53;;;;;;;6.68;1.67;;;;;;;;;;5002920;28;20052;-86
2022/09/07 09:49:32;;;;;;;4.53;1.73;;;;;;;;;;4999797;28;20038;-87
2022/09/07 09:52:18;;;;;;;5.03;1.50;;;;;;;;;;4990464;28;20470;-86
2022/09/07 09:54:50;;;;;;;2.92;1.40;;;;;;;;;;4997084;28;20048;-87
2022/09/07 09:57:56;;;;;;;7.18;1.48;;;;;;;;;;4997241;28;20038;-89
2022/09/07 10:00:23;;;;;;;5.68;1.63;;;;;;;;;;5001509;28;20407;-90
2022/09/07 10:03:13;;;;;;;4.68;1.70;;;;;;;;;;5004301;28;20052;-89
2022/09/07 10:05:41;;;;;;;7.50;1.55;;;;;;;;;;5006356;28;20030;-87
2022/09/07 10:08:19;;;;;;;4.63;1.42;;;;;;;;;;5005465;28;20033;-90
2022/09/07 10:11:05;;;;;;;7.65;1.92;;;;;;;;;;4985375;28;20046;-89
2022/09/07 10:13:34;;;;;;;3.63;1.30;;;;;;;;;;5003434;28;20034;-91
2022/09/07 10:16:03;;;;;;;3.13;1.45;;;;;;;;;;5024801;28;20034;-91
2022/09/07 10:18:52;;;;;;;4.75;1.27;;;;;;;;;;5001254;28;20122;-87
2022/09/07 10:21:23;;;;;;;3.47;1.30;;;;;;;;;;4997736;28;20730;-86
2022/09/07 10:24:04;;;;;;;5.03;1.63;;;;;;;;;;4993451;28;20093;-91
2022/09/07 10:26:37;;;;;;;6.63;1.70;;;;;;;;;;5014747;28;20029;-90
2022/09/07 10:29:11;;;;;;;4.57;1.50;;;;;;;;;;5036244;28;20041;-90
2022/09/07 10:31:58;;;;;;;8.30;1.20;;;;;;;;;;5019619;28;20410;-90
2022/09/07 10:34:44;;;;;;;11.90;1.58;;;;;;;;;;5023151;28;20033;-91
2022/09/07 10:37:14;;;;;;;5.13;1.27;;;;;;;;;;5007568;28;20053;-90
2022/09/07 10:40:02;;;;;;;4.32;1.20;;;;;;;;;;5025010;28;20113;-88
2022/09/07 10:42:34;;;;;;;6.22;1.23;;;;;;;;;;5019923;28;20053;-90
2022/09/07 10:45:17;;;;;;;5.05;1.40;;;;;;;;;;5017901;28;20120;-87
2022/09/07 10:48:01;;;;;;;4.13;1.13;;;;;;;;;;5008609;28;20029;-89
2022/09/07 10:50:49;;;;;;;4.43;1.52;;;;;;;;;;5005764;28;20037;-88
2022/09/07 11:17:15;;;;;;;3.17;1.40;;;;;;;;;;5008741;28;20084;-87
2022/09/07 11:20:03;;;;;;;3.50;1.33;;;;;;;;;;5015389;28;20431;-88
2022/09/07 11:22:37;;;;;;;6.13;1.25;;;;;;;;;;5038044;28;20033;-88
2022/09/07 11:25:07;;;;;;;3.85;1.27;;;;;;;;;;5020026;28;20094;-89
2022/09/07 11:28:11;;;;;;;5.07;1.40;;;;;;;;;;5007567;28;20252;-89
2022/09/07 11:30:46;;;;;;;8.15;1.58;;;;;;;;;;4983416;28;20041;-87
2022/09/07 11:33:11;;;;;;;5.15;1.60;;;;;;;;;;5018351;28;20486;-88
2022/09/07 11:36:01;;;;;;;5.88;1.40;;;;;;;;;;5031492;28;20580;-89
2022/09/07 11:38:47;;;;;;;5.95;1.42;;;;;;;;;;4981481;28;20595;-88
2022/09/07 11:41:21;;;;;;;8.15;1.30;;;;;;;;;;4999502;28;20068;-93
2022/09/07 11:44:16;;;;;;;3.03;0.95;;;;;;;;;;4978374;28;20045;-87
2022/09/07 11:46:51;;;;;;;6.10;1.40;;;;;;;;;;5000255;28;20120;-89
2022/09/07 11:49:27;;;;;;;2.45;1.20;;;;;;;;;;4995550;28;20039;-88
2022/09/07 11:52:00;;;;;;;4.82;1.08;;;;;;;;;;4981038;28;20586;-90
2022/09/07 11:54:44;;;;;;;;;;;;;;;;;;4984924;28;20064;-89
2022/09/07 11:57:45;;;;;;;3.55;1.45;;;;;;;;;;4986766;28;20470;-87
2022/09/07 12:00:19;;;;;;;5.45;1.48;;;;;;;;;;4981574;28;20038;-86
2022/09/07 12:03:17;;;;;;;6.57;2.55;;;;;;;;;;4974574;28;20510;-87
2022/09/07 12:06:12;;;;;;;5.75;1.10;;;;;;;;;;4996308;28;20053;-88
2022/09/07 12:08:58;;;;;;;3.45;1.30;;;;;;;;;;4985273;28;20026;-87
2022/09/07 12:12:00;;;;;;;5.38;1.20;;;;;;;;;;4963750;28;20049;-87
2022/09/07 12:14:36;;;;;;;4.40;1.40;;;;;;;;;;4988066;28;20046;-87
2022/09/07 12:17:29;;;;;;;7.10;1.45;;;;;;;;;;4991995;28;20042;-87
2022/09/07 12:20:18;;;;;;;7.32;1.50;;;;;;;;;;4987812;28;20116;-87
2022/09/07 12:23:15;;;;;;;3.45;1.33;;;;;;;;;;4975723;28;20045;-86
2022/09/07 12:25:47;;;;;;;3.58;1.33;;;;;;;;;;4941015;28;20047;-86
2022/09/07 12:28:24;;;;;;;2.95;0.90;;;;;;;;;;4986353;28;20125;-87
2022/09/07 12:30:57;;;;;;;5.60;1.15;;;;;;;;;;4981527;28;20062;-88
2022/09/07 12:33:31;;;;;;;5.13;1.30;;;;;;;;;;4988314;28;20033;-89
2022/09/07 12:35:59;;;;;;;7.75;1.10;;;;;;;;;;4985181;28;20033;-86
2022/09/07 12:38:34;;;;;;;4.18;1.00;;;;;;;;;;5022368;28;20041;-87
2022/09/07 12:41:01;;;;;;;4.38;1.20;;;;;;;;;;5002502;28;20042;-87
2022/09/07 12:43:35;;;;;;;4.80;1.30;;;;;;;;;;5007275;28;20124;-89
2022/09/07 12:46:03;;;;;;;4.72;1.23;;;;;;;;;;5027928;28;20044;-88
2022/09/07 12:48:38;;;;;;;4.90;1.17;;;;;;;;;;4997314;28;20039;-85
2022/09/07 12:51:15;;;;;;;2.03;0.90;;;;;;;;;;5023984;28;20037;-87
2022/09/07 12:54:18;;;;;;;3.97;1.05;;;;;;;;;;5005834;28;20022;-88
2022/09/07 12:56:53;;;;;;;6.28;1.40;;;;;;;;;;4997928;28;20116;-87
2022/09/07 12:59:49;;;;;;;4.03;1.00;;;;;;;;;;5115181;22;20096;-88
2022/09/07 13:02:27;;;;;;;4.35;0.95;;;;;;;;;;5000374;28;20058;-86
2022/09/07 13:05:34;;;;;;;3.72;1.35;;;;;;;;;;5005488;28;20121;-87
2022/09/07 13:08:37;;;;;;;2.05;0.93;;;;;;;;;;4949855;28;20038;-86
2022/09/07 13:11:18;;;;;;;2.97;1.00;;;;;;;;;;5007265;28;20050;-85
2022/09/07 13:13:57;;;;;;;3.13;1.10;;;;;;;;;;5004791;28;20081;-87
2022/09/07 13:16:37;;;;;;;7.05;1.10;;;;;;;;;;4994928;28;20100;-87
2022/09/07 13:19:49;;;;;;;2.05;1.05;;;;;;;;;;5007999;28;20037;-88
2022/09/07 13:22:30;;;;;;;3.92;1.10;;;;;;;;;;5001007;28;20068;-91
2022/09/07 13:25:25;;;;;;;4.47;1.10;;;;;;;;;;5004336;28;20026;-86
2022/09/07 13:28:02;;;;;;;4.72;1.08;;;;;;;;;;4905633;29;20070;-88
2022/09/07 13:30:27;;;;;;;5.00;1.60;;;;;;;;;;4982645;28;20208;-87
2022/09/07 13:33:28;;;;;;;4.75;1.33;;;;;;;;;;4989685;28;20117;-89
2022/09/07 13:36:05;;;;;;;4.97;1.20;;;;;;;;;;4985723;28;20040;-87
2022/09/07 13:38:33;;;;;;;3.67;1.00;;;;;;;;;;4977785;28;20185;-87
2022/09/07 13:41:21;;;;;;;3.40;1.52;;;;;;;;;;4976141;28;20155;-87
2022/09/07 13:43:47;;;;;;;2.60;1.00;;;;;;;;;;4959812;28;20117;-88
2022/09/07 13:46:50;;;;;;;4.40;1.00;;;;;;;;;;4989779;28;20507;-90
2022/09/07 13:49:35;;;;;;;8.05;1.20;;;;;;;;;;4984547;28;20037;-88
2022/09/07 13:52:15;;;;;;;4.10;1.17;;;;;;;;;;5010589;23;20109;-89
2022/09/07 13:55:14;;;;;;;5.15;1.20;;;;;;;;;;4978363;28;20038;-87
2022/09/07 13:58:07;;;;;;;2.63;0.90;;;;;;;;;;5003682;28;20056;-89
2022/09/07 14:00:33;;;;;;;4.97;1.50;;;;;;;;;;4998216;28;20129;-89
2022/09/07 14:03:05;;;;;;;3.78;1.08;;;;;;;;;;4982587;28;20132;-89
2022/09/07 14:05:39;;;;;;;4.45;1.20;;;;;;;;;;5007086;28;20083;-87
2022/09/07 14:08:24;;;;;;;3.53;1.13;;;;;;;;;;4981697;28;20479;-86
2022/09/07 14:10:49;;;;;;;3.47;1.02;;;;;;;;;;4987800;28;20830;-87
2022/09/07 14:13:14;;;;;;;4.00;1.20;;;;;;;;;;4989460;28;20042;-84
2022/09/07 14:15:44;;;;;;;9.73;1.27;;;;;;;;;;4983596;28;20050;-87
2022/09/07 14:18:20;;;;;;;3.22;1.20;;;;;;;;;;4987419;28;20045;-88
2022/09/07 14:20:52;;;;;;;3.83;1.23;;;;;;;;;;4983921;28;20037;-88
2022/09/07 14:23:30;;;;;;;5.55;1.42;;;;;;;;;;5003647;28;20116;-88
2022/09/07 14:26:18;;;;;;;5.03;0.98;;;;;;;;;;5001706;28;20590;-88
2022/09/07 14:28:51;;;;;;;6.32;1.40;;;;;;;;;;5022558;28;20098;-87
2022/09/07 14:31:21;;;;;;;;;;;;;;;;;;5003826;28;20041;-88
2022/09/07 14:33:57;;;;;;;5.10;0.90;;;;;;;;;;5005478;28;19921;-88
2022/09/07 14:36:30;;;;;;;5.20;1.45;;;;;;;;;;5001160;28;20041;-86
2022/09/07 14:38:57;;;;;;;5.55;1.23;;;;;;;;;;5014994;28;20025;-88
2022/09/07 14:41:27;;;;;;;2.90;1.13;;;;;;;;;;5001010;28;20021;-90
2022/09/07 14:43:53;;;;;;;4.20;1.15;;;;;;;;;;5003925;28;20041;-87
2022/09/07 14:46:23;;;;;;;4.75;1.10;;;;;;;;;;5024421;28;20645;-89
2022/09/07 14:49:13;;;;;;;5.43;1.30;;;;;;;;;;4987171;28;20639;-88
2022/09/07 14:51:42;;;;;;;8.57;1.23;;;;;;;;;;4998479;28;20037;-88
2022/09/07 14:54:18;;;;;;;3.53;1.45;;;;;;;;;;5023156;28;20116;-89
2022/09/07 14:56:59;;;;;;;4.05;1.17;;;;;;;;;;5007139;28;20029;-88
2022/09/07 14:59:35;;;;;;;4.05;1.48;;;;;;;;;;5004494;28;20052;-89
2022/09/07 15:02:26;;;;;;;2.15;1.20;;;;;;;;;;5003606;28;20038;-89
2022/09/07 15:05:27;;;;;;;6.90;1.38;;;;;;;;;;4995685;28;20030;-88
2022/09/07 15:08:02;;;;;;;4.93;1.30;;;;;;;;;;4973177;28;20030;-86
2022/09/07 15:10:39;;;;;;;7.38;1.60;;;;;;;;;;5007319;28;20046;-93
2022/09/07 15:13:43;;;;;;;5.28;1.33;;;;;;;;;;5006136;28;20034;-86
2022/09/07 15:16:27;;;;;;;4.57;1.50;;;;;;;;;;4998217;28;20048;-93
2022/09/07 15:18:57;;;;;;;7.50;1.67;;;;;;;;;;5004934;28;20041;-86
2022/09/07 15:21:35;;;;;;;3.42;1.17;;;;;;;;;;4990640;28;20064;-88
2022/09/07 16:09:46;;;;;;;5.38;1.63;;;;;;;;;;4989250;28;20589;-76
2022/09/07 16:15:33;;;;;;;4.68;1.42;;;;;;;;;;5037023;23;20455;-67
2022/09/07 16:18:00;;;;;;;5.97;1.30;;;;;;;;;;5049243;28;20045;-71
2022/09/07 16:20:27;;;;;;;5.57;1.58;;;;;;;;;;5044888;28;20025;-71
2022/09/07 16:22:53;;;;;;;4.32;1.70;;;;;;;;;;5028638;28;20532;-71
2022/09/07 16:25:18;;;;;;;3.83;1.50;;;;;;;;;;5042182;28;20037;-69
2022/09/07 16:27:44;;;;;;;6.75;1.60;;;;;;;;;;5039771;28;20033;-69
2022/09/07 16:30:10;;;;;;;6.15;1.70;;;;;;;;;;5029790;28;20033;-71
2022/09/07 16:32:35;;;;;;;4.18;1.30;;;;;;;;;;5033775;28;20029;-70
2022/09/07 16:35:01;;;;;;;6.20;1.40;;;;;;;;;;5028081;28;20483;-71
2022/09/07 16:37:26;;;;;;;3.97;1.30;;;;;;;;;;5034066;28;20087;-71
2022/09/07 16:39:52;;;;;;;7.35;1.17;;;;;;;;;;5028775;28;20542;-72
2022/09/07 16:42:17;;;;;;;6.00;1.45;;;;;;;;;;5036229;28;20141;-72
2022/09/07 16:44:42;;;;;;;7.00;1.60;;;;;;;;;;5035500;28;20059;-72
2022/09/07 16:47:08;;;;;;;4.95;1.30;;;;;;;;;;5039432;28;20068;-72
2022/09/07 16:49:34;;;;;;;7.88;1.60;;;;;;;;;;5047293;28;20071;-71
2022/09/07 16:51:59;;;;;;;3.65;1.40;;;;;;;;;;5049070;28;20497;-72
2022/09/07 16:54:25;;;;;;;4.28;1.48;;;;;;;;;;5034031;28;20474;-69
2022/09/07 16:56:51;;;;;;;5.45;1.45;;;;;;;;;;5036556;28;20500;-67
2022/09/07 16:59:20;;;;;;;3.75;1.52;;;;;;;;;;5035823;28;20647;-71
2022/09/07 17:01:45;;;;;;;5.32;1.63;;;;;;;;;;5023705;28;20044;-71